Santa Maria de Palautordera, Spain
Current Conditions -  °F | °C
As of 4:30 PM on Saturday 22 Nov 2014 (Local Time) from LELL Reporting Station
Few Clouds Few Clouds  
Wind Chill: 68°   Ceiling: Unl
Heat Index: 68°   Visibility: 6mi
Dew Point: 61°   Wind: 1mph
Humidity: 78%   Direction: NA
Pressure: 30.03"   Gusts: NA
Location:  41.7°N, 2.45°E
Report Text: LELL 221530Z VRB01KT 9999 FEW015 20/16 Q1017 NOSIG
Loading
Personal Weather Stations






























Interactive Weather Map New forecast layout! Learn more

10-Day Weather Forecast

Advertisements
Track Severe Weather on mobile